首页
METAR-TAF:

METAR-TAF

机场 :

Peterborough, 安大略省, 加拿大

纬度: 44-14N, 经度: 078-22W, 海拔: 191米

当前天气观测

该预报发布于10分钟前的17:06 UTC
风速5节,风向西转西北
温度 2°C
湿度 100%
气压 1019 hPa
能見度: 3.6公里
阴天层高于400英尺
轻雾

METAR: CYPQ 201706Z AUTO 29005KT 2 1/4SM BR OVC004 02/02 A3008 RMK SLP196

时间: 12:16 (17:16 UTC)

预报

该预报发布于10分钟前的17:06 UTC
预报有效从20日的 17点(UTC)到 21日的 02点(UTC)
风速5节,风向西北
能見度: 4.8公里
阴天层高于400英尺
轻雾
成为
从 20日的 17点(UTC)到 20日的 19点(UTC)
能見度: 10公里
散云层高于400英尺
阴天层高于2000英尺
从 20日的 1900点(UTC)
风速6节,风向西转西北
能見度: 10公里
多云层高于2500英尺
短暂存在
从 20日的 19点(UTC)到 21日的 02点(UTC)
能見度: 10公里
多云层高于2000英尺
小雨

TAF: CYPQ 201706Z 2017/2102 31005KT 3SM BR OVC004 BECMG 2017/2019 P6SM NSW SCT004 OVC020 FM201900 30006KT P6SM BKN025 TEMPO 2019/2102 P6SM -RA BKN020 RMK FCST BASED ON AUTO OBS. NXT FCST BY 202000Z

超过4000个机场的气象观测和天气预报(METAR&TAF报告)。

可查询的气象台以黄色和红色小点在地图上表示。

将鼠标移到小点上方,可查看气象台名称。

然后点击查看天气观测和预报。

如需切换地图:点击带黑十字的绿色按钮放大地图;点击带横线的绿色按钮缩小地图;或者点击绿色箭头查看邻近地区的地图。


METAR-TAF: